首页
METAR-TAF:

METAR-TAF

机场 :

卡尔加里国际机场

卡尔加里, 艾伯塔, 加拿大

纬度: 51-07N, 经度: 114-01W, 海拔: 1077米

当前天气观测

该预报发布于12分钟前的07:00 UTC
风速6节,风向
温度 12°C
湿度 67%
气压 1020 hPa
能見度: 24.1公里
天空无云

METAR: CYYC 180700Z 19006KT 15SM SKC 12/06 A3013 RMK SLP211 DENSITY ALT 3900FT

时间: 01:12 (07:12 UTC)

预报

该预报发布于1小时和34分钟前的05:38 UTC
预报有效从18日的 06点(UTC)到 19日的 06点(UTC)
风速8节,风向
能見度: 10公里
天空无云
从 18日的 1700点(UTC)
风速10节,风向南转南东
能見度: 10公里
少量云层高于8000英尺
从 18日的 1900点(UTC)
风速10节,风向东转东南
能見度: 10公里
少量云层高于8000英尺
从 19日的 0300点(UTC)
风速7节,风向
能見度: 10公里
天空无云

TAF: CYYC 180538Z 1806/1906 18008KT P6SM SKC FM181700 15010KT P6SM FEW080 FM181900 11010KT P6SM FEW080 FM190300 18007KT P6SM SKC RMK NXT FCST BY 180900Z

超过4000个机场的气象观测和天气预报(METAR&TAF报告)。

可查询的气象台以黄色和红色小点在地图上表示。

将鼠标移到小点上方,可查看气象台名称。

然后点击查看天气观测和预报。

如需切换地图:点击带黑十字的绿色按钮放大地图;点击带横线的绿色按钮缩小地图;或者点击绿色箭头查看邻近地区的地图。


METAR-TAF: